Time;durP1;ratioP1;P1;durP2;ratioP2;P2;SDS_P1;SDS_P2;PMS_P1;PMS_P2;Temp;Humidity;BMP_temperature;BMP_pressure;BME280_temperature;BME280_humidity;BME280_pressure;Samples;Min_cycle;Max_cycle;Signal;HPM_P1;HPM_P2
2023/10/12 00:02:09;;;;;;;15.23;14.63;;;;;;;-141.02;99.79;41365.72;5136463;27;20185;-67
2023/10/12 00:04:38;;;;;;;15.80;15.20;;;;;;;-141.02;99.61;41327.34;5136411;27;20246;-65
2023/10/12 00:07:15;;;;;;;15.70;15.10;;;;;;;-141.02;99.91;41335.03;5135821;27;20676;-66
2023/10/12 00:09:47;;;;;;;15.60;15.00;;;;;;;-141.02;99.39;41340.78;5136107;27;20570;-66
2023/10/12 00:12:15;;;;;;;15.65;15.05;;;;;;;-141.02;100.00;41342.69;5136226;27;20249;-67
2023/10/12 00:14:43;;;;;;;15.27;14.68;;;;;;;-141.02;100.00;41325.44;5136201;27;20632;-66
2023/10/12 00:17:17;;;;;;;15.60;15.00;;;;;;;-141.02;100.00;41346.53;5136474;27;20550;-65
2023/10/12 00:19:44;;;;;;;15.50;14.90;;;;;;;-141.02;100.00;41335.03;5135696;27;20636;-67
2023/10/12 00:22:11;;;;;;;15.50;14.90;;;;;;;-141.02;100.00;41329.28;5135706;27;20279;-65
2023/10/12 00:24:39;;;;;;;15.27;14.68;;;;;;;-141.02;100.00;41323.50;5135751;27;20208;-66
2023/10/12 00:27:08;;;;;;;15.40;14.80;;;;;;;-141.02;100.00;41344.63;5135893;27;20224;-65
2023/10/12 00:29:39;;;;;;;15.57;14.98;;;;;;;-141.02;100.00;41308.16;5135688;27;20233;-67
2023/10/12 00:32:08;;;;;;;16.02;15.43;;;;;;;-141.02;100.00;41323.50;5135566;27;20184;-66
2023/10/12 00:34:39;;;;;;;16.20;15.60;;;;;;;-141.02;100.00;41327.34;5135463;27;20288;-65
2023/10/12 00:37:07;;;;;;;15.73;15.13;;;;;;;-141.02;100.00;41290.91;5135525;27;20709;-66
2023/10/12 00:39:45;;;;;;;14.68;14.18;;;;;;;-141.02;100.00;41290.91;5135208;27;20232;-67
2023/10/12 00:42:17;;;;;;;15.43;14.82;;;;;;;-141.02;100.00;41294.72;5134329;27;20191;-66
2023/10/12 00:44:47;;;;;;;14.65;14.15;;;;;;;-141.02;100.00;41242.91;5135370;27;20208;-67
2023/10/12 00:47:28;;;;;;;14.88;14.38;;;;;;;-141.02;100.00;41264.03;5135127;27;20716;-67
2023/10/12 00:49:57;;;;;;;14.70;14.20;;;;;;;-141.02;100.00;41254.44;5135246;27;20658;-66
2023/10/12 00:52:26;;;;;;;14.60;14.10;;;;;;;-141.02;100.00;41221.81;5135513;27;20188;-64
2023/10/12 00:54:58;;;;;;;14.70;14.20;;;;;;;-141.02;100.00;41210.31;5135447;27;20261;-66
2023/10/12 00:57:25;;;;;;;14.77;14.27;;;;;;;-141.02;100.00;41187.28;5135163;27;20276;-66
2023/10/12 00:59:52;;;;;;;13.90;13.40;;;;;;;-141.02;100.00;41189.19;5134997;27;20199;-64
2023/10/12 01:02:24;;;;;;;14.32;13.82;;;;;;;-141.02;100.00;41170.00;5135227;27;20192;-67
2023/10/12 01:04:53;;;;;;;14.10;13.60;;;;;;;-141.02;100.00;41145.06;5135302;27;20552;-66
2023/10/12 01:07:25;;;;;;;14.02;13.52;;;;;;;-141.02;100.00;41143.16;5135121;27;20312;-66
2023/10/12 01:10:03;;;;;;;13.85;13.35;;;;;;;-141.02;100.00;41110.53;5134990;27;20191;-66
2023/10/12 01:12:31;;;;;;;16.70;16.10;;;;;;;-141.02;100.00;41079.81;5134775;27;20666;-67
2023/10/12 01:15:08;;;;;;;13.70;13.20;;;;;;;-141.02;100.00;41070.22;5135002;27;20193;-67
2023/10/12 01:17:40;;;;;;;14.10;13.60;;;;;;;-141.02;100.00;41051.03;5134710;27;20188;-65
2023/10/12 01:20:16;;;;;;;14.00;13.50;;;;;;;-141.02;100.00;41005.00;5134921;27;20245;-67
2023/10/12 01:22:47;;;;;;;13.75;13.35;;;;;;;-141.02;100.00;41005.00;5134645;27;20673;-67
2023/10/12 01:25:21;;;;;;;13.45;13.05;;;;;;;-141.02;100.00;41003.06;5134608;27;20647;-67
2023/10/12 01:27:49;;;;;;;13.57;13.18;;;;;;;-141.02;100.00;40966.63;5134668;27;20266;-66
2023/10/12 01:30:21;;;;;;;13.50;13.10;;;;;;;-141.02;100.00;40928.25;5134725;27;20235;-66
2023/10/12 01:32:53;;;;;;;13.15;12.75;;;;;;;-141.02;100.00;40901.38;5134427;27;20673;-66
2023/10/12 01:35:26;;;;;;;13.38;12.98;;;;;;;-141.02;100.00;40868.78;5134575;27;20192;-67
2023/10/12 01:38:00;;;;;;;13.68;13.27;;;;;;;-141.02;100.00;40884.13;5134179;27;20280;-66
2023/10/12 01:40:40;;;;;;;13.10;12.70;;;;;;;-141.02;100.00;40828.47;5134076;27;20706;-65
2023/10/12 01:43:12;;;;;;;12.85;12.45;;;;;;;-141.02;100.00;40820.81;5134180;27;20184;-66
2023/10/12 01:45:42;;;;;;;12.75;12.35;;;;;;;-141.02;100.00;40822.72;5134379;27;20220;-66
2023/10/12 01:48:12;;;;;;;13.00;12.60;;;;;;;-141.02;100.00;40849.59;5134002;27;20700;-66
2023/10/12 01:50:39;;;;;;;13.15;12.75;;;;;;;-141.02;100.00;40849.59;5134322;27;20232;-67
2023/10/12 01:53:22;;;;;;;12.90;12.50;;;;;;;-141.02;100.00;40859.19;5133764;27;20666;-67
2023/10/12 01:56:10;;;;;;;12.75;12.35;;;;;;;-141.02;100.00;40828.47;5134398;27;20211;-65
2023/10/12 01:58:43;;;;;;;12.60;12.20;;;;;;;-141.02;100.00;40832.31;5133809;27;20192;-67
2023/10/12 02:01:18;;;;;;;13.25;12.85;;;;;;;-141.02;100.00;40847.66;5133967;27;20579;-67
2023/10/12 02:03:47;;;;;;;13.10;12.70;;;;;;;-141.02;100.00;40816.97;5134142;27;20224;-67
2023/10/12 02:06:19;;;;;;;12.95;12.55;;;;;;;-141.02;100.00;40818.88;5133978;27;20196;-66
2023/10/12 02:08:52;;;;;;;13.00;12.60;;;;;;;-141.02;100.00;40836.16;5134065;27;20279;-66
2023/10/12 02:11:36;;;;;;;12.90;12.50;;;;;;;-141.02;100.00;40832.31;5133576;27;20184;-66
2023/10/12 02:14:04;;;;;;;13.20;12.80;;;;;;;-141.02;100.00;40884.13;5133915;27;20189;-66
2023/10/12 02:16:31;;;;;;;13.40;12.90;;;;;;;-141.02;100.00;40861.09;5133517;27;20646;-65
2023/10/12 02:19:04;;;;;;;13.85;13.35;;;;;;;-141.02;100.00;40878.38;5133585;27;20223;-67
2023/10/12 02:21:33;;;;;;;13.60;13.10;;;;;;;-141.02;100.00;40909.06;5133819;27;20192;-67
2023/10/12 02:24:11;;;;;;;13.52;13.02;;;;;;;-141.02;100.00;40895.63;5133707;27;20189;-66
2023/10/12 02:26:52;;;;;;;13.52;13.02;;;;;;;-141.02;100.00;40905.22;5133235;27;20725;-66
2023/10/12 02:29:35;;;;;;;13.50;13.00;;;;;;;-141.02;100.00;40909.06;5133646;27;20189;-65
2023/10/12 02:32:23;;;;;;;13.70;13.20;;;;;;;-141.02;100.00;40905.22;5133449;27;20248;-66
2023/10/12 02:34:55;;;;;;;13.65;13.15;;;;;;;-141.02;100.00;40857.25;5133308;27;20249;-66
2023/10/12 02:37:58;;;;;;;13.93;13.43;;;;;;;-141.02;100.00;40912.91;5133353;27;20270;-57
2023/10/12 02:41:04;;;;;;;13.50;13.00;;;;;;;-141.02;100.00;40935.91;5132946;27;20220;-61
2023/10/12 02:43:32;;;;;;;13.52;13.02;;;;;;;-141.02;100.00;40951.28;5133369;27;20202;-64
2023/10/12 02:46:02;;;;;;;13.60;13.10;;;;;;;-141.02;100.00;40916.75;5133100;27;20200;-65
2023/10/12 02:48:30;;;;;;;13.00;12.60;;;;;;;-141.02;100.00;40930.16;5132970;27;20314;-64
2023/10/12 02:51:01;;;;;;;13.13;12.73;;;;;;;-141.02;100.00;40943.59;5133357;27;20257;-67
2023/10/12 02:53:31;;;;;;;12.80;12.40;;;;;;;-141.02;100.00;40924.41;5133294;27;20200;-66
2023/10/12 02:56:02;;;;;;;12.65;12.25;;;;;;;-141.02;100.00;40920.56;5133269;27;20243;-63
2023/10/12 02:58:33;;;;;;;12.65;12.25;;;;;;;-141.02;100.00;40958.94;5133140;28;20206;-65
2023/10/12 03:01:12;;;;;;;12.65;12.25;;;;;;;-141.02;100.00;40934.00;5133002;27;20192;-65
2023/10/12 03:03:47;;;;;;;11.87;11.47;;;;;;;-141.02;100.00;40910.97;5133346;27;20267;-66
2023/10/12 03:06:15;;;;;;;12.05;11.65;;;;;;;-141.02;100.00;40895.63;5136401;27;20180;-66
2023/10/12 03:11:25;;;;;;;11.90;11.50;;;;;;;-141.02;100.00;40891.78;5134533;27;20195;-66
2023/10/12 03:14:00;;;;;;;11.70;11.30;;;;;;;-141.02;100.00;40886.03;5137392;27;20192;-66
2023/10/12 03:16:34;;;;;;;11.57;11.18;;;;;;;-141.02;100.00;40878.38;5137033;27;20282;-66
2023/10/12 03:19:35;;;;;;;11.45;11.10;;;;;;;-141.02;100.00;40886.03;5136974;27;20206;-66
2023/10/12 03:22:23;;;;;;;11.70;11.30;;;;;;;-141.02;100.00;40857.25;5136972;27;20193;-66
2023/10/12 03:28:13;;;;;;;11.60;11.20;;;;;;;-141.02;100.00;40845.75;5136761;27;20226;-65
2023/10/12 03:30:52;;;;;;;11.40;11.05;;;;;;;-141.02;100.00;40851.50;5137060;27;20292;-66
2023/10/12 03:33:19;;;;;;;11.30;11.00;;;;;;;-141.02;100.00;40841.91;5137066;27;20672;-66
2023/10/12 03:35:57;;;;;;;11.38;11.05;;;;;;;-141.02;100.00;40889.88;5136599;27;20586;-65
2023/10/12 03:38:25;;;;;;;11.75;11.35;;;;;;;-141.02;100.00;40843.81;5136866;27;20207;-66
2023/10/12 03:41:39;;;;;;;11.70;11.30;;;;;;;-141.02;100.00;40836.16;5136377;27;20281;-66
2023/10/12 03:43:40;;;;;;;11.30;11.00;;;;;;;-141.02;100.00;40840.00;5136331;27;20290;-65
2023/10/12 03:46:17;;;;;;;11.00;10.70;;;;;;;-141.02;100.00;40849.59;5136731;27;20277;-65
2023/10/12 03:48:50;;;;;;;11.30;11.00;;;;;;;-141.02;100.00;40832.31;5136378;27;20230;-66
2023/10/12 03:51:37;;;;;;;11.10;10.80;;;;;;;-141.02;100.00;40818.88;5136428;27;20220;-66
2023/10/12 03:54:18;;;;;;;10.82;10.52;;;;;;;-141.02;100.00;40828.47;5136616;27;20706;-66
2023/10/12 03:56:48;;;;;;;10.88;10.57;;;;;;;-141.02;100.00;40828.47;5136560;27;20249;-63
2023/10/12 03:59:19;;;;;;;11.53;11.13;;;;;;;-141.02;100.00;40809.28;5136212;27;20570;-66
2023/10/12 04:01:49;;;;;;;11.00;10.70;;;;;;;-141.02;100.00;40792.03;5136513;27;20548;-66
2023/10/12 04:04:21;;;;;;;11.27;10.97;;;;;;;-141.02;100.00;40767.09;5136474;27;20192;-63
2023/10/12 04:07:05;;;;;;;10.80;10.50;;;;;;;-141.02;100.00;40698.00;5136027;27;20714;-66
2023/10/12 04:09:43;;;;;;;10.20;9.90;;;;;;;-141.02;100.00;40632.78;5136407;27;20233;-59
2023/10/12 04:12:19;;;;;;;10.40;10.10;;;;;;;-141.02;100.00;40636.63;5136307;27;20249;-66
2023/10/12 04:14:50;;;;;;;12.07;11.67;;;;;;;-141.02;100.00;40517.69;5136319;27;20276;-66
2023/10/12 04:17:34;;;;;;;11.00;10.60;;;;;;;-141.02;100.00;40435.19;5135847;27;20246;-66
2023/10/12 04:20:16;;;;;;;14.47;13.97;;;;;;;-141.02;100.00;40314.34;5135990;27;20192;-66
2023/10/12 04:25:46;;;;;;;9.50;9.20;;;;;;;-141.02;100.00;40180.06;5134829;27;20295;-66
2023/10/12 04:28:24;;;;;;;8.50;8.30;;;;;;;-141.02;100.00;40118.66;5136472;27;20228;-66
2023/10/12 04:34:06;;;;;;;12.20;11.80;;;;;;;-141.02;100.00;39970.97;5072483;28;20230;-64
2023/10/12 04:36:44;;;;;;;8.50;8.30;;;;;;;-141.02;100.00;39932.59;5072315;28;20244;-66
2023/10/12 04:39:24;;;;;;;11.93;11.53;;;;;;;-141.02;100.00;39940.28;5109021;27;20276;-66
2023/10/12 04:42:04;;;;;;;11.23;10.93;;;;;;;-141.02;100.00;39313.13;5135677;27;20192;-64
2023/10/12 04:44:40;;;;;;;11.93;11.53;;;;;;;-141.02;100.00;39995.91;5135382;27;20642;-66
2023/10/12 04:47:07;;;;;;;11.60;11.20;;;;;;;-141.02;100.00;39965.22;5135466;27;20203;-64
2023/10/12 04:52:25;;;;;;;9.60;9.30;;;;;;;-141.02;100.00;39972.88;5135149;27;20245;-65
2023/10/12 04:57:43;;;;;;;7.60;7.40;;;;;;;-141.02;100.00;40011.25;5124283;27;20704;-65
2023/10/12 05:00:11;;;;;;;8.07;7.87;;;;;;;-141.02;100.00;40009.34;5135312;27;20255;-65
2023/10/12 05:08:20;;;;;;;7.93;7.73;;;;;;;-141.02;100.00;40095.66;5134816;27;20227;-65
2023/10/12 05:10:48;;;;;;;11.43;11.07;;;;;;;-141.02;100.00;40157.03;5135418;27;20196;-65
2023/10/12 05:13:20;;;;;;;10.30;10.00;;;;;;;-141.02;100.00;40160.88;5134711;27;20249;-65
2023/10/12 05:15:54;;;;;;;9.40;9.10;;;;;;;-141.02;100.00;40304.75;5135184;27;20200;-65
2023/10/12 05:18:23;;;;;;;9.53;9.23;;;;;;;-141.02;100.00;40249.13;5135029;27;20185;-65
2023/10/12 05:20:52;;;;;;;9.60;9.30;;;;;;;-141.02;100.00;40231.84;5134654;27;20640;-65
2023/10/12 05:23:19;;;;;;;9.70;9.40;;;;;;;-141.02;100.00;40233.75;5134535;27;20193;-66
2023/10/12 05:25:53;;;;;;;10.13;9.83;;;;;;;-141.02;100.00;40275.97;5134515;27;20188;-65
2023/10/12 05:28:27;;;;;;;9.73;9.43;;;;;;;-141.02;100.00;40281.72;5133854;27;20212;-65
2023/10/12 05:30:59;;;;;;;9.50;9.20;;;;;;;-141.02;100.00;40306.66;5134502;27;20196;-66
2023/10/12 05:33:38;;;;;;;9.75;9.45;;;;;;;-141.02;100.00;40333.50;5134722;27;20180;-65
2023/10/12 05:36:11;;;;;;;10.10;9.80;;;;;;;-141.02;100.00;40406.41;5134763;27;20188;-64
2023/10/12 05:38:39;;;;;;;10.40;10.10;;;;;;;-141.02;100.00;40448.63;5134105;27;20180;-64
2023/10/12 05:41:09;;;;;;;10.52;10.23;;;;;;;-141.02;100.00;40479.31;5134238;27;20283;-65
2023/10/12 05:43:38;;;;;;;10.82;10.52;;;;;;;-141.02;100.00;40479.31;5134591;27;20200;-65
2023/10/12 05:46:10;;;;;;;11.60;11.20;;;;;;;-141.02;100.00;40584.81;5134167;27;20745;-64
2023/10/12 05:48:45;;;;;;;11.50;11.20;;;;;;;-141.02;100.00;40571.41;5133975;27;20224;-66
2023/10/12 05:51:15;;;;;;;11.20;10.90;;;;;;;-141.02;100.00;40538.78;5134080;27;20275;-66
2023/10/12 05:53:42;;;;;;;11.40;11.10;;;;;;;-141.02;100.00;40567.56;5133875;27;20579;-65
2023/10/12 05:56:09;;;;;;;12.05;11.65;;;;;;;-141.02;100.00;40383.38;5134224;27;20373;-65
2023/10/12 05:58:38;;;;;;;11.90;11.50;;;;;;;-141.02;100.00;40655.81;5133931;27;20283;-66
2023/10/12 06:01:30;;;;;;;11.80;11.40;;;;;;;-141.02;100.00;40640.47;5134108;27;20199;-66
2023/10/12 06:03:58;;;;;;;12.10;11.70;;;;;;;-141.02;100.00;40663.47;5133751;27;20650;-66
2023/10/12 06:06:31;;;;;;;12.20;11.80;;;;;;;-141.02;100.00;40682.66;5133765;27;20232;-66
2023/10/12 06:08:59;;;;;;;11.40;11.10;;;;;;;-141.02;100.00;40682.66;5133587;27;20219;-65
2023/10/12 06:11:26;;;;;;;11.85;11.45;;;;;;;-141.02;100.00;40759.41;5133908;27;20196;-65
2023/10/12 06:13:53;;;;;;;11.70;11.30;;;;;;;-141.02;100.00;40776.69;5133921;27;20581;-65
2023/10/12 06:16:20;;;;;;;11.40;11.10;;;;;;;-141.02;100.00;40686.50;5133871;27;20275;-66
2023/10/12 06:18:49;;;;;;;12.48;12.07;;;;;;;-141.02;100.00;40728.72;5133874;27;20207;-65
2023/10/12 06:21:18;;;;;;;12.57;12.18;;;;;;;-141.02;100.00;40772.84;5133752;27;20298;-65
2023/10/12 06:23:50;;;;;;;12.60;12.20;;;;;;;-141.02;100.00;40778.59;5133721;27;20574;-66
2023/10/12 06:26:29;;;;;;;12.70;12.30;;;;;;;-141.02;100.00;40776.69;5133757;27;20188;-65
2023/10/12 06:29:00;;;;;;;13.07;12.68;;;;;;;-141.02;100.00;40838.06;5133721;27;20271;-65
2023/10/12 06:31:29;;;;;;;12.90;12.50;;;;;;;-141.02;100.00;40809.28;5133378;27;20206;-66
2023/10/12 06:33:57;;;;;;;13.40;12.90;;;;;;;-141.02;100.00;40855.34;5133303;27;20199;-65
2023/10/12 06:36:37;;;;;;;13.50;13.00;;;;;;;-141.02;100.00;40820.81;5133238;27;20198;-65
2023/10/12 06:42:09;;;;;;;13.35;12.95;;;;;;;-141.02;100.00;40866.84;5133453;27;20571;-65
2023/10/12 06:44:35;;;;;;;13.20;12.80;;;;;;;-141.02;100.00;40866.84;5133459;27;20196;-65
2023/10/12 06:47:24;;;;;;;13.07;12.68;;;;;;;-141.02;100.00;40909.06;5133109;27;20260;-66
2023/10/12 06:49:51;;;;;;;13.75;13.25;;;;;;;-141.02;100.00;40886.03;5132976;27;20248;-65
2023/10/12 06:52:19;;;;;;;13.63;13.13;;;;;;;-141.02;100.00;40882.19;5133120;27;20570;-65
2023/10/12 06:54:54;;;;;;;13.60;13.10;;;;;;;-141.02;100.00;40932.09;5132965;27;20196;-66
2023/10/12 06:57:42;;;;;;;14.15;13.65;;;;;;;-141.02;100.00;40928.25;5133316;27;20188;-66
2023/10/12 07:00:33;;;;;;;14.00;13.50;;;;;;;-141.02;100.00;40920.56;5133286;28;20193;-66
2023/10/12 07:03:08;;;;;;;14.25;13.75;;;;;;;-141.02;100.00;40970.47;5132972;27;20280;-65
2023/10/12 07:05:37;;;;;;;14.30;13.80;;;;;;;-141.02;100.00;41018.44;5132975;27;20184;-66
2023/10/12 07:08:15;;;;;;;14.35;13.85;;;;;;;-141.02;99.34;40978.13;5132697;28;20709;-65
2023/10/12 07:10:58;;;;;;;14.27;13.77;;;;;;;-141.02;99.13;41005.00;5133098;28;20188;-66
2023/10/12 07:13:26;;;;;;;14.50;14.00;;;;;;;-141.02;97.39;41039.53;5132995;28;20650;-65
2023/10/12 07:15:54;;;;;;;14.90;14.30;;;;;;;-141.02;96.38;41058.72;5133115;28;20204;-66
2023/10/12 07:18:22;;;;;;;15.13;14.52;;;;;;;-141.02;93.74;41146.97;5132969;28;20283;-65
2023/10/12 07:20:49;;;;;;;15.00;14.40;;;;;;;-141.02;94.06;41100.94;5132731;28;20236;-65
2023/10/12 07:23:16;;;;;;;14.88;14.38;;;;;;;-141.02;92.69;41150.81;5133045;28;20203;-66
2023/10/12 07:25:46;;;;;;;15.48;14.88;;;;;;;-141.02;88.81;41252.53;5132956;28;20536;-65
2023/10/12 07:28:18;;;;;;;15.88;15.18;;;;;;;-141.02;88.33;41308.16;5132621;27;20702;-66
2023/10/12 07:31:23;;;;;;;15.85;15.15;;;;;;;-141.02;88.54;41400.28;5132844;28;20185;-66
2023/10/12 07:33:35;;;;;;;15.60;15.00;;;;;;;-141.02;86.90;41427.13;5132476;28;20547;-65
2023/10/12 07:36:11;;;;;;;16.08;15.38;;;;;;;-141.02;83.73;41507.72;5132797;28;20253;-67
2023/10/12 07:38:38;;;;;;;15.82;15.13;;;;;;;-141.02;81.60;41565.31;5132948;28;20188;-63
2023/10/12 07:41:09;;;;;;;16.15;15.45;;;;;;;-141.02;81.09;41596.00;5132556;28;20663;-66
2023/10/12 07:43:38;;;;;;;16.55;15.85;;;;;;;-141.02;80.18;41615.19;5132798;28;20272;-66
2023/10/12 07:46:13;;;;;;;16.38;15.68;;;;;;;-141.02;78.90;41653.59;5132371;28;20203;-66
2023/10/12 07:48:44;;;;;;;16.98;16.17;;;;;;;-141.02;77.85;41703.47;5132406;28;20685;-66
2023/10/12 07:51:24;;;;;;;17.08;16.27;;;;;;;-141.02;77.84;41734.19;5134270;27;20189;-65
2023/10/12 07:53:57;;;;;;;17.08;16.27;;;;;;;-141.02;76.23;41707.31;5136819;27;20216;-64
2023/10/12 07:56:31;;;;;;;17.08;16.27;;;;;;;-141.02;74.98;41766.81;5136619;27;20231;-66
2023/10/12 07:58:58;;;;;;;17.08;16.27;;;;;;;-141.02;73.79;41803.28;5136189;27;20601;-65
2023/10/12 08:01:39;;;;;;;16.95;16.15;;;;;;;-141.02;74.20;41818.63;5136297;27;20284;-66
2023/10/12 08:04:28;;;;;;;16.63;15.93;;;;;;;-141.02;72.34;41816.72;5136763;27;20320;-63
2023/10/12 08:06:56;;;;;;;16.88;16.08;;;;;;;-141.02;70.94;41849.34;5136054;27;20195;-66
2023/10/12 08:09:34;;;;;;;16.80;16.00;;;;;;;-141.02;70.05;41864.69;5136208;27;20247;-65
2023/10/12 08:12:23;;;;;;;16.45;15.75;;;;;;;-141.02;70.25;41903.06;5135955;27;20650;-66
2023/10/12 08:14:53;;;;;;;16.98;16.17;;;;;;;-141.02;69.35;41916.50;5135851;27;20205;-65
2023/10/12 08:17:33;;;;;;;16.65;15.95;;;;;;;-141.02;70.13;41926.09;5136053;27;20193;-66
2023/10/12 08:22:42;;;;;;;16.70;15.90;;;;;;;-141.02;67.89;41999.03;5135494;27;20192;-63
2023/10/12 08:25:09;;;;;;;16.63;15.93;;;;;;;-141.02;67.71;42022.06;5135933;27;20200;-65
2023/10/12 08:27:52;;;;;;;16.42;15.73;;;;;;;-141.02;67.00;42010.53;5135548;27;20666;-65
2023/10/12 08:30:22;;;;;;;16.27;15.57;;;;;;;-141.02;66.85;42033.56;5135912;27;20199;-64
2023/10/12 08:32:58;;;;;;;16.17;15.48;;;;;;;-141.02;66.27;42048.94;5135836;27;20204;-64
2023/10/12 08:35:35;;;;;;;15.70;15.00;;;;;;;-141.02;65.63;42075.81;5135745;27;20181;-65
2023/10/12 08:38:12;;;;;;;15.77;15.07;;;;;;;-141.02;65.03;42068.13;5135786;27;20267;-63
2023/10/12 08:43:45;;;;;;;15.80;15.15;;;;;;;-141.02;64.72;42129.53;5072695;28;20248;-63
2023/10/12 08:46:56;;;;;;;15.40;14.80;;;;;;;-141.02;64.65;42112.28;5122813;27;20274;-65
2023/10/12 08:49:33;;;;;;;15.73;15.02;;;;;;;-141.02;64.10;42167.94;5135078;27;20228;-63
2023/10/12 08:52:05;;;;;;;15.20;14.60;;;;;;;-141.02;65.21;42175.59;5134947;27;20196;-66
2023/10/12 08:54:37;;;;;;;15.20;14.60;;;;;;;-141.02;64.10;42181.38;5135208;27;20189;-67
2023/10/12 08:57:09;;;;;;;15.13;14.52;;;;;;;-141.02;63.52;42150.66;5135156;27;20224;-67
2023/10/12 08:59:42;;;;;;;14.95;14.35;;;;;;;-141.02;63.71;42202.47;5135333;27;20267;-67
2023/10/12 09:02:19;;;;;;;14.82;14.23;;;;;;;-141.02;63.15;42240.88;5134300;27;20612;-61
2023/10/12 09:04:50;;;;;;;14.88;14.27;;;;;;;-141.02;62.01;42256.22;5134901;27;20218;-64
2023/10/12 09:07:19;;;;;;;14.90;14.30;;;;;;;-141.02;62.11;42237.03;5134550;27;20180;-64
2023/10/12 09:09:49;;;;;;;14.77;14.18;;;;;;;-141.02;62.62;42265.81;5134702;27;20224;-62
2023/10/12 09:12:21;;;;;;;14.90;14.30;;;;;;;-141.02;62.59;42254.31;5134605;27;20286;-64
2023/10/12 09:14:54;;;;;;;14.70;14.20;;;;;;;-141.02;61.72;42279.25;5134704;27;20712;-65
2023/10/12 09:17:30;;;;;;;15.05;14.45;;;;;;;-141.02;61.46;42306.13;5134673;27;20715;-62
2023/10/12 09:20:26;;;;;;;14.90;14.30;;;;;;;-141.02;61.94;42309.97;5134947;27;20216;-66
2023/10/12 09:23:05;;;;;;;14.90;14.30;;;;;;;-141.02;62.20;42298.44;5134458;27;20189;-62
2023/10/12 09:28:42;;;;;;;14.98;14.38;;;;;;;-141.02;62.16;42304.22;5109965;27;20931;-65
2023/10/12 09:31:13;;;;;;;14.82;14.23;;;;;;;-141.02;62.56;42321.47;5109797;28;20181;-66
2023/10/12 09:33:54;;;;;;;14.77;14.23;;;;;;;-141.02;61.61;42382.91;5109942;28;20267;-63
2023/10/12 09:52:14;;;;;;;15.18;14.57;;;;;;;-141.02;61.23;42407.84;5110881;27;20943;-65
2023/10/12 09:54:48;;;;;;;15.00;14.40;;;;;;;-141.02;61.34;42306.13;5109222;28;20215;-64
2023/10/12 09:57:23;;;;;;;15.25;14.75;;;;;;;-141.02;60.68;42407.84;5109725;28;20654;-68
2023/10/12 09:59:59;;;;;;;15.60;15.00;;;;;;;-141.02;60.64;42384.81;5109603;28;20212;-63
2023/10/12 10:02:30;;;;;;;15.30;14.70;;;;;;;-141.02;59.95;42363.72;5109723;28;20181;-67
2023/10/12 10:05:26;;;;;;;15.45;14.85;;;;;;;-141.02;59.02;42394.41;5109569;28;20242;-62
2023/10/12 10:08:03;;;;;;;15.48;14.88;;;;;;;-141.02;61.42;42446.25;5109536;28;20181;-64
2023/10/12 10:10:32;;;;;;;15.43;14.82;;;;;;;-141.02;60.74;42371.38;5109533;28;20193;-64
2023/10/12 10:13:01;;;;;;;16.00;15.40;;;;;;;-141.02;59.93;42386.75;5109780;28;20198;-67
2023/10/12 10:15:36;;;;;;;15.68;15.07;;;;;;;-141.02;58.59;42382.91;5109680;28;20209;-64
2023/10/12 10:18:04;;;;;;;15.77;15.18;;;;;;;-141.02;58.08;42392.50;5109375;28;20181;-65
2023/10/12 10:20:50;;;;;;;15.77;15.18;;;;;;;-141.02;57.20;42384.81;5109523;28;20229;-58
2023/10/12 10:23:19;;;;;;;15.73;15.13;;;;;;;-141.02;57.12;42432.81;5109215;28;20190;-61
2023/10/12 10:25:56;;;;;;;15.65;15.05;;;;;;;-141.02;56.09;42375.22;5109157;28;20189;-64
2023/10/12 10:28:27;;;;;;;16.15;15.55;;;;;;;-141.02;57.49;42457.75;5109125;28;20190;-61
2023/10/12 10:30:56;;;;;;;15.75;15.15;;;;;;;-141.02;57.23;42457.75;5109005;28;20228;-59
2023/10/12 10:33:24;;;;;;;15.07;14.57;;;;;;;-141.02;57.68;42484.63;5109058;28;20724;-64
2023/10/12 10:35:57;;;;;;;15.40;14.80;;;;;;;-141.02;57.31;42471.19;5109045;28;20240;-64
2023/10/12 10:38:30;;;;;;;15.50;14.90;;;;;;;-141.02;56.97;42503.84;5108921;28;20714;-65
2023/10/12 10:41:05;;;;;;;15.30;14.73;;;;;;;-141.02;57.15;42509.59;5109168;28;20304;-65
2023/10/12 10:43:34;;;;;;;15.35;14.75;;;;;;;-141.02;57.18;42509.59;5108858;28;20700;-62
2023/10/12 10:46:05;;;;;;;15.70;15.10;;;;;;;-141.02;56.56;42501.91;5109193;28;20294;-67
2023/10/12 10:48:33;;;;;;;19.92;18.92;;;;;;;-141.02;56.17;42546.06;5108832;28;20188;-67
2023/10/12 10:51:04;;;;;;;16.10;15.50;;;;;;;-141.02;55.74;42509.59;5107201;28;20294;-67
2023/10/12 10:53:36;;;;;;;15.98;15.38;;;;;;;-141.02;56.14;42532.63;5095337;28;20186;-63
2023/10/12 10:56:13;;;;;;;15.70;15.10;;;;;;;-141.02;56.24;42478.88;5095350;28;20194;-66
2023/10/12 10:58:40;;;;;;;16.00;15.40;;;;;;;-141.02;56.91;42221.66;5094945;28;20189;-65
2023/10/12 11:01:12;;;;;;;15.85;15.25;;;;;;;-141.02;56.59;42582.53;5094816;28;20229;-67
2023/10/12 11:03:40;;;;;;;15.73;15.13;;;;;;;-141.02;56.24;42561.41;5095184;28;20192;-66
2023/10/12 11:06:21;;;;;;;15.82;15.23;;;;;;;-141.02;55.40;42594.06;5095089;28;20228;-67
2023/10/12 11:09:06;;;;;;;15.85;15.25;;;;;;;-141.02;55.40;42567.19;5094781;28;20257;-66
2023/10/12 11:11:44;;;;;;;15.63;15.02;;;;;;;-141.02;54.56;42582.53;5094986;28;20194;-63
2023/10/12 11:14:16;;;;;;;15.73;15.13;;;;;;;-141.02;55.00;42559.50;5094971;28;20193;-62
2023/10/12 11:16:46;;;;;;;15.77;15.18;;;;;;;-141.02;54.05;42551.81;5094949;28;20251;-66
2023/10/12 11:19:13;;;;;;;16.08;15.48;;;;;;;-141.02;54.50;42584.47;5094832;28;20244;-65
2023/10/12 11:21:46;;;;;;;15.75;15.15;;;;;;;-141.02;54.62;42590.22;5094736;28;20233;-61
2023/10/12 11:24:14;;;;;;;16.05;15.45;;;;;;;-141.02;54.59;42563.34;5094426;28;20233;-68
2023/10/12 11:26:52;;;;;;;16.10;15.50;;;;;;;-141.02;55.63;42651.66;5094728;28;20247;-68
2023/10/12 11:29:19;;;;;;;15.70;15.10;;;;;;;-141.02;56.09;42663.16;5094301;28;20198;-68
2023/10/12 11:32:08;;;;;;;15.52;14.93;;;;;;;-141.02;55.04;42624.78;5094622;28;20194;-69
2023/10/12 11:34:35;;;;;;;15.80;15.20;;;;;;;-141.02;55.15;42659.31;5094575;28;20198;-67
2023/10/12 11:37:02;;;;;;;15.63;15.02;;;;;;;-141.02;54.59;42634.38;5094578;28;20197;-67
2023/10/12 11:39:41;;;;;;;15.80;15.20;;;;;;;-141.02;53.68;42642.03;5094471;28;20197;-67
2023/10/12 11:42:12;;;;;;;16.13;15.52;;;;;;;-141.02;53.74;42649.72;5094033;28;20257;-68
2023/10/12 11:44:42;;;;;;;15.88;15.27;;;;;;;-141.02;54.17;42663.16;5094377;28;20200;-67
2023/10/12 11:47:09;;;;;;;16.05;15.45;;;;;;;-141.02;52.45;42640.13;5094073;28;20719;-67
2023/10/12 11:49:50;;;;;;;16.15;15.55;;;;;;;-141.02;52.61;42601.72;5094263;28;20225;-67
2023/10/12 11:52:29;;;;;;;16.35;15.75;;;;;;;-141.02;52.07;42649.72;5094010;28;20192;-67
2023/10/12 11:55:03;;;;;;;16.40;15.80;;;;;;;-141.02;51.66;42651.66;5093911;28;20646;-68
2023/10/12 11:57:30;;;;;;;16.27;15.68;;;;;;;-141.02;51.46;42643.97;5094197;28;20189;-69
2023/10/12 12:00:00;;;;;;;15.90;15.30;;;;;;;-141.02;51.85;42697.72;5093668;28;20756;-67
2023/10/12 12:02:29;;;;;;;16.00;15.40;;;;;;;-141.02;52.01;42701.56;5093882;28;20193;-69
2023/10/12 12:04:56;;;;;;;16.27;15.68;;;;;;;-141.02;52.23;42707.31;5093633;28;20194;-68
2023/10/12 12:07:23;;;;;;;16.02;15.43;;;;;;;-141.02;51.27;42713.06;5093992;28;20277;-68
2023/10/12 12:09:53;;;;;;;16.20;15.60;;;;;;;-141.02;51.69;42728.44;5093597;28;20546;-68
2023/10/12 12:12:21;;;;;;;16.35;15.75;;;;;;;-141.02;50.75;42688.13;5093919;28;20205;-65
2023/10/12 12:14:51;;;;;;;16.17;15.57;;;;;;;-141.02;50.26;42747.63;5093440;28;20572;-59
2023/10/12 12:17:18;;;;;;;16.30;15.70;;;;;;;-141.02;50.52;42747.63;5093404;28;20190;-59